Time;durP1;ratioP1;P1;durP2;ratioP2;P2;SDS_P1;SDS_P2;PMS_P1;PMS_P2;Temp;Humidity;BMP_temperature;BMP_pressure;BME280_temperature;BME280_humidity;BME280_pressure;Samples;Min_cycle;Max_cycle;Signal;HPM_P1;HPM_P2
2022/12/25 00:00:15;;;;;;;21.62;14.15;;;19.60;90.50;;;;;;1887296;75;21095;-85
2022/12/25 00:02:56;;;;;;;26.30;15.48;;;19.50;90.80;;;;;;1888042;74;21560;-84
2022/12/25 00:05:30;;;;;;;19.35;14.15;;;19.60;91.30;;;;;;1886795;75;21603;-85
2022/12/25 00:08:02;;;;;;;24.77;15.30;;;19.60;93.50;;;;;;1886894;75;21528;-85
2022/12/25 00:10:34;;;;;;;22.62;13.83;;;19.60;86.50;;;;;;1884846;75;21071;-84
2022/12/25 00:13:06;;;;;;;25.82;15.23;;;19.60;86.50;;;;;;1882592;74;21127;-86
2022/12/25 00:15:40;;;;;;;23.67;16.42;;;19.60;86.30;;;;;;1888814;75;21189;-85
2022/12/25 00:18:11;;;;;;;26.25;15.85;;;19.70;85.90;;;;;;1888297;74;21083;-85
2022/12/25 00:20:42;;;;;;;23.92;16.37;;;19.70;86.40;;;;;;1893028;75;21135;-86
2022/12/25 00:23:14;;;;;;;28.57;19.17;;;19.70;86.30;;;;;;1887773;76;21535;-86
2022/12/25 00:25:46;;;;;;;35.40;19.80;;;19.70;86.10;;;;;;1884749;76;21119;-85
2022/12/25 00:28:17;;;;;;;36.63;22.98;;;19.70;86.20;;;;;;1882238;76;21116;-85
2022/12/25 00:30:48;;;;;;;27.77;19.73;;;19.70;86.20;;;;;;1812935;77;21204;-86
2022/12/25 00:33:19;;;;;;;30.00;18.60;;;19.70;86.00;;;;;;1857071;76;21223;-86
2022/12/25 00:36:02;;;;;;;31.77;16.67;;;19.70;86.20;;;;;;1876458;76;21206;-86
2022/12/25 00:38:34;;;;;;;21.25;13.75;;;19.70;86.20;;;;;;1892347;75;21082;-86
2022/12/25 00:41:15;;;;;;;22.55;13.78;;;19.70;86.30;;;;;;1849202;77;21146;-86
2022/12/25 00:43:45;;;;;;;20.95;14.83;;;19.80;86.50;;;;;;1850119;76;21146;-86
2022/12/25 00:46:16;;;;;;;22.13;14.45;;;19.80;86.50;;;;;;1860221;76;21091;-86
2022/12/25 00:48:47;;;;;;;21.27;14.35;;;19.80;86.60;;;;;;1856828;76;21233;-85
2022/12/25 00:51:21;;;;;;;23.45;14.98;;;19.80;86.50;;;;;;1887843;75;21134;-85
2022/12/25 00:53:54;;;;;;;22.15;15.88;;;19.90;86.40;;;;;;1885814;75;21274;-86
2022/12/25 00:56:25;;;;;;;20.10;15.98;;;20.00;86.10;;;;;;1889220;75;21115;-86
2022/12/25 00:58:56;;;;;;;23.30;15.68;;;20.00;86.00;;;;;;1886778;75;21193;-86
2022/12/25 01:01:27;;;;;;;24.18;14.10;;;20.00;85.70;;;;;;1889118;75;21050;-88
2022/12/25 01:03:59;;;;;;;22.48;13.72;;;20.10;85.70;;;;;;1888530;75;21303;-88
2022/12/25 01:06:35;;;;;;;23.90;15.05;;;20.20;85.80;;;;;;1853303;76;21143;-86
2022/12/25 01:11:55;;;;;;;25.10;14.15;;;20.30;84.70;;;;;;1848445;76;21210;-87
2022/12/25 01:14:26;;;;;;;20.10;14.03;;;20.40;84.70;;;;;;1851714;76;21107;-84
2022/12/25 01:16:57;;;;;;;19.67;14.15;;;20.40;84.40;;;;;;1820782;77;21548;-86
2022/12/25 01:19:28;;;;;;;25.88;14.35;;;20.40;83.70;;;;;;1882273;74;21075;-84
2022/12/25 01:21:59;;;;;;;25.02;13.85;;;20.50;83.80;;;;;;1818046;77;21112;-87
2022/12/25 01:24:29;;;;;;;20.50;13.78;;;20.50;83.70;;;;;;1901249;75;21154;-88
2022/12/25 01:27:02;;;;;;;23.57;14.73;;;20.50;83.70;;;;;;1892902;75;21146;-88
2022/12/25 01:29:52;;;;;;;22.10;14.85;;;20.60;83.60;;;;;;1859112;76;21205;-87
2022/12/25 01:32:23;;;;;;;21.15;14.03;;;20.60;83.40;;;;;;1872650;76;21174;-88
2022/12/25 01:34:54;;;;;;;21.30;14.45;;;20.60;83.10;;;;;;1865233;76;21209;-87
2022/12/25 01:37:25;;;;;;;19.15;12.68;;;20.70;83.10;;;;;;1859713;76;21155;-88
2022/12/25 01:39:56;;;;;;;20.95;13.65;;;20.70;83.10;;;;;;1862083;76;21081;-87
2022/12/25 01:42:28;;;;;;;15.80;11.53;;;20.80;83.00;;;;;;1823032;77;21098;-87
2022/12/25 01:45:05;;;;;;;15.98;10.60;;;20.80;82.30;;;;;;1828550;78;21093;-87
2022/12/25 01:47:39;;;;;;;19.50;11.28;;;20.80;82.20;;;;;;1789621;79;21135;-87
2022/12/25 01:50:12;;;;;;;16.45;10.08;;;20.90;82.10;;;;;;1861079;74;21141;-87
2022/12/25 01:52:48;;;;;;;19.62;12.40;;;20.90;81.20;;;;;;1874966;76;21135;-87
2022/12/25 01:55:22;;;;;;;16.05;11.75;;;20.90;81.20;;;;;;1867797;75;21094;-87
2022/12/25 01:57:54;;;;;;;18.15;11.22;;;20.90;81.20;;;;;;1865315;75;21182;-86
2022/12/25 02:00:27;;;;;;;25.02;10.85;;;21.00;81.10;;;;;;1869242;76;21258;-86
2022/12/25 02:02:59;;;;;;;14.45;9.70;;;21.00;80.60;;;;;;1863656;76;21103;-87
2022/12/25 02:05:35;;;;;;;13.32;10.30;;;21.00;80.10;;;;;;1846255;76;21050;-86
2022/12/25 02:08:11;;;;;;;18.07;9.40;;;21.10;80.20;;;;;;1873623;74;21158;-86
2022/12/25 02:10:43;;;;;;;17.00;9.73;;;21.10;80.30;;;;;;1842506;76;21155;-87
2022/12/25 02:13:19;;;;;;;18.75;10.88;;;21.20;79.80;;;;;;1870427;76;21117;-85
2022/12/25 02:16:13;;;;;;;14.98;10.13;;;21.20;79.70;;;;;;1860739;76;21224;-90
2022/12/25 02:18:54;;;;;;;19.07;10.82;;;21.30;79.80;;;;;;1858663;76;21202;-87
2022/12/25 02:21:38;;;;;;;;;;;21.30;79.30;;;;;;1871353;75;22233;-87
2022/12/25 02:24:26;;;;;;;18.00;11.40;;;21.40;79.40;;;;;;1835206;75;20772;-87
2022/12/25 02:27:14;;;;;;;21.73;11.28;;;21.40;79.80;;;;;;1864074;76;21197;-89
2022/12/25 02:30:11;;;;;;;18.10;10.98;;;21.40;80.00;;;;;;1874851;75;21083;-88
2022/12/25 02:32:44;;;;;;;;;;;21.50;79.90;;;;;;1913766;74;21080;-88
2022/12/25 02:35:27;;;;;;;18.12;11.08;;;21.50;79.80;;;;;;1920594;74;20150;-87
2022/12/25 02:38:03;;;;;;;20.55;12.93;;;21.60;79.80;;;;;;1915656;73;21171;-87
2022/12/25 02:40:46;;;;;;;19.65;11.70;;;21.60;80.20;;;;;;1920833;73;21076;-87
2022/12/25 03:06:42;;;;;;;13.98;8.60;;;22.30;83.30;;;;;;1910886;74;21439;-82
2022/12/25 03:12:26;;;;;;;18.30;9.68;;;22.40;82.20;;;;;;1862148;75;21048;-80
2022/12/25 03:17:56;;;;;;;16.37;8.15;;;22.50;81.30;;;;;;1808700;78;21185;-81
2022/12/25 03:29:01;;;;;;;14.45;8.70;;;22.90;80.70;;;;;;1885898;76;21123;-81
2022/12/25 03:31:49;;;;;;;14.20;7.95;;;23.00;80.30;;;;;;1889732;75;21080;-83
2022/12/25 04:37:17;;;;;;;18.98;9.33;;;25.00;67.40;;;;;;1940407;74;21123;-80
2022/12/25 04:39:48;;;;;;;17.37;9.13;;;25.10;67.10;;;;;;1939579;74;21131;-83
2022/12/25 04:42:20;;;;;;;18.17;8.68;;;25.10;68.00;;;;;;1933335;73;21560;-81
2022/12/25 04:44:51;;;;;;;15.65;7.75;;;25.20;67.10;;;;;;1926944;74;21135;-82
2022/12/25 04:47:22;;;;;;;12.88;7.70;;;25.30;65.40;;;;;;1909585;74;21077;-82
2022/12/25 04:49:53;;;;;;;13.53;7.15;;;25.40;64.50;;;;;;1934036;73;21525;-81
2022/12/25 04:52:24;;;;;;;13.05;7.62;;;25.50;64.30;;;;;;1938701;74;21042;-83
2022/12/25 04:54:55;;;;;;;15.32;7.25;;;25.50;64.50;;;;;;1924007;74;21622;-82
2022/12/25 04:57:26;;;;;;;11.15;7.00;;;25.60;64.70;;;;;;1932908;74;21073;-82
2022/12/25 04:59:57;;;;;;;10.88;6.62;;;25.70;64.90;;;;;;1924257;74;21180;-82
2022/12/25 05:02:28;;;;;;;17.05;7.00;;;25.90;64.70;;;;;;1928359;74;21069;-80
2022/12/25 05:04:59;;;;;;;12.78;6.78;;;26.00;62.90;;;;;;1936181;74;21116;-81
2022/12/25 05:07:30;;;;;;;13.75;7.67;;;26.10;62.60;;;;;;1929409;74;21136;-81
2022/12/25 05:10:01;;;;;;;14.25;6.97;;;26.10;62.40;;;;;;1930500;74;21186;-83
2022/12/25 05:12:32;;;;;;;10.25;5.80;;;26.10;61.90;;;;;;1920124;74;21077;-82
2022/12/25 05:15:03;;;;;;;12.00;6.53;;;26.20;62.00;;;;;;1938565;72;21559;-82
2022/12/25 05:17:36;;;;;;;12.60;7.17;;;26.20;61.70;;;;;;1915147;72;21203;-82
2022/12/25 05:20:10;;;;;;;11.60;6.85;;;;;;;;;;1901634;74;21132;-83
2022/12/25 05:22:42;;;;;;;11.48;7.00;;;27.10;77.90;;;;;;1940728;74;21125;-83
2022/12/25 05:25:13;;;;;;;12.60;6.83;;;26.40;62.30;;;;;;1913762;72;21073;-83
2022/12/25 05:27:45;;;;;;;15.80;7.08;;;26.50;62.20;;;;;;1923751;74;21104;-86
2022/12/25 05:30:19;;;;;;;9.90;6.62;;;26.70;61.30;;;;;;1941955;74;21176;-85
2022/12/25 05:32:53;;;;;;;16.35;7.55;;;26.70;60.60;;;;;;1927284;74;21158;-87
2022/12/25 05:35:26;;;;;;;14.70;7.00;;;26.80;61.50;;;;;;1936970;73;21544;-85
2022/12/25 05:37:57;;;;;;;13.20;6.85;;;26.80;61.20;;;;;;1940988;72;21065;-86
2022/12/25 05:40:27;;;;;;;16.23;7.60;;;26.90;61.10;;;;;;1943164;73;21049;-85
2022/12/25 05:42:58;;;;;;;11.70;7.28;;;26.90;60.90;;;;;;1940723;74;21072;-84
2022/12/25 05:45:30;;;;;;;12.13;7.37;;;27.00;60.70;;;;;;1936035;72;21146;-86
2022/12/25 05:48:04;;;;;;;15.55;7.08;;;26.90;61.40;;;;;;1940495;72;21113;-86
2022/12/25 05:50:37;;;;;;;13.50;7.00;;;27.00;61.00;;;;;;1952675;72;21493;-87
2022/12/25 05:53:13;;;;;;;14.47;7.20;;;27.00;59.80;;;;;;1941883;74;21062;-87
2022/12/25 05:55:51;;;;;;;14.58;6.87;;;27.00;59.80;;;;;;1903960;74;21124;-86
2022/12/25 05:58:23;;;;;;;14.60;7.70;;;27.10;59.70;;;;;;1936532;74;21123;-86
2022/12/25 06:00:54;;;;;;;13.45;6.65;;;27.10;60.30;;;;;;1917940;74;21130;-88
2022/12/25 06:03:29;;;;;;;11.18;6.80;;;27.10;59.60;;;;;;1972352;72;21080;-85
2022/12/25 06:06:08;;;;;;;10.82;6.08;;;27.10;59.20;;;;;;1940758;72;21091;-85
2022/12/25 06:08:54;;;;;;;11.55;6.62;;;27.10;59.80;;;;;;1913015;74;21517;-85
2022/12/25 06:11:32;;;;;;;10.20;6.77;;;27.10;59.00;;;;;;1946167;74;21042;-85
2022/12/25 06:14:45;;;;;;;12.93;6.47;;;27.00;59.10;;;;;;1914264;74;21125;-84
2022/12/25 06:17:19;;;;;;;14.05;6.10;;;27.00;59.00;;;;;;1863481;74;21094;-85
2022/12/25 06:20:15;;;;;;;10.65;6.65;;;27.00;59.60;;;;;;1940122;74;21148;-85
2022/12/25 06:22:51;;;;;;;15.03;6.12;;;27.10;58.90;;;;;;1947040;74;21132;-86
2022/12/25 06:25:28;;;;;;;10.65;6.50;;;;;;;;;;1946293;74;21037;-86
2022/12/25 06:27:58;;;;;;;16.32;7.37;;;27.30;58.10;;;;;;1949141;74;21045;-86
2022/12/25 06:30:29;;;;;;;11.22;7.35;;;27.40;58.10;;;;;;1946578;74;21112;-86
2022/12/25 06:33:00;;;;;;;12.07;6.83;;;27.40;58.30;;;;;;1945702;74;21104;-86
2022/12/25 06:35:31;;;;;;;14.40;7.15;;;27.40;58.30;;;;;;1946825;74;21069;-86
2022/12/25 06:38:03;;;;;;;13.62;6.58;;;27.30;58.00;;;;;;1947312;73;21112;-85
2022/12/25 06:40:35;;;;;;;12.80;6.83;;;27.20;59.00;;;;;;1946648;74;21077;-85
2022/12/25 06:43:06;;;;;;;12.03;5.83;;;27.10;58.40;;;;;;1945650;74;21073;-85
2022/12/25 06:45:37;;;;;;;9.93;5.55;;;27.10;58.20;;;;;;1945047;72;21077;-86
2022/12/25 06:48:08;;;;;;;12.28;5.95;;;27.10;59.00;;;;;;1946604;72;21489;-85
2022/12/25 06:50:41;;;;;;;9.68;5.40;;;27.10;57.40;;;;;;1944892;74;21112;-84
2022/12/25 06:53:12;;;;;;;8.83;5.28;;;27.20;57.40;;;;;;1963474;72;21131;-86
2022/12/25 06:55:45;;;;;;;9.73;4.90;;;27.20;57.50;;;;;;1928433;74;21521;-87
2022/12/25 06:58:16;;;;;;;11.48;5.97;;;27.10;58.50;;;;;;1910780;75;21135;-87
2022/12/25 07:00:47;;;;;;;11.65;5.30;;;27.10;59.60;;;;;;1920395;72;21119;-87
2022/12/25 07:03:21;;;;;;;7.62;4.58;;;27.20;57.00;;;;;;1926368;72;21178;-87
2022/12/25 07:05:52;;;;;;;9.33;5.60;;;27.20;58.20;;;;;;1905135;74;21063;-86
2022/12/25 07:08:23;;;;;;;11.03;5.55;;;27.20;57.30;;;;;;1929471;74;21073;-86
2022/12/25 07:10:55;;;;;;;7.87;4.80;;;27.30;56.80;;;;;;1912652;74;21071;-87
2022/12/25 07:13:26;;;;;;;8.40;4.87;;;27.30;56.80;;;;;;1918614;74;21121;-87
2022/12/25 07:16:06;;;;;;;8.30;4.75;;;27.30;56.90;;;;;;1872776;75;21155;-87
2022/12/25 07:18:37;;;;;;;9.23;4.95;;;27.30;56.70;;;;;;1895075;74;21060;-86
2022/12/25 07:21:13;;;;;;;11.28;4.97;;;27.40;56.70;;;;;;1913062;74;21131;-87
2022/12/25 07:23:46;;;;;;;8.65;4.95;;;27.40;56.60;;;;;;1892351;76;21129;-86
2022/12/25 07:26:17;;;;;;;7.92;4.75;;;27.50;56.60;;;;;;1891449;76;21129;-86
2022/12/25 07:28:48;;;;;;;19.67;4.80;;;27.60;56.00;;;;;;1889311;76;21095;-86
2022/12/25 07:31:19;;;;;;;12.53;5.20;;;27.60;55.60;;;;;;1892521;75;21606;-85
2022/12/25 07:33:56;;;;;;;8.70;5.30;;;27.50;57.10;;;;;;1882579;76;21132;-86
2022/12/25 07:36:29;;;;;;;10.82;5.37;;;27.40;56.80;;;;;;1861406;77;21780;-87
2022/12/25 07:39:00;;;;;;;11.00;5.25;;;27.40;56.20;;;;;;1884623;74;21099;-86
2022/12/25 07:41:33;;;;;;;10.43;5.37;;;27.40;56.30;;;;;;1898660;75;21118;-85
2022/12/25 07:44:11;;;;;;;10.05;5.33;;;27.40;56.70;;;;;;1916669;74;21113;-88
2022/12/25 07:46:45;;;;;;;11.15;6.17;;;27.30;57.10;;;;;;1869644;77;21094;-87
2022/12/25 07:49:16;;;;;;;13.85;5.65;;;27.40;56.80;;;;;;1896530;75;21115;-88
2022/12/25 07:51:47;;;;;;;10.75;6.10;;;27.40;57.30;;;;;;1901135;75;22240;-86
2022/12/25 07:54:19;;;;;;;10.78;5.70;;;27.40;56.80;;;;;;1892635;75;21193;-85
2022/12/25 07:56:56;;;;;;;13.08;5.90;;;27.50;56.20;;;;;;1868972;77;21107;-86
2022/12/25 07:59:47;;;;;;;8.70;5.37;;;27.40;57.00;;;;;;1899731;74;21059;-86
2022/12/25 08:02:18;;;;;;;11.22;5.12;;;27.30;56.40;;;;;;1900901;75;21075;-86
2022/12/25 08:04:52;;;;;;;8.88;5.33;;;27.30;56.80;;;;;;1901856;75;21104;-86
2022/12/25 08:07:26;;;;;;;8.48;5.17;;;27.30;57.20;;;;;;1902069;75;21058;-86
2022/12/25 08:09:57;;;;;;;10.63;5.67;;;27.30;57.30;;;;;;1915606;74;21096;-85
2022/12/25 08:12:30;;;;;;;9.08;5.60;;;27.30;57.00;;;;;;1898759;75;21146;-84
2022/12/25 08:15:06;;;;;;;8.80;5.72;;;27.30;57.20;;;;;;1896398;75;21087;-85
2022/12/25 08:17:38;;;;;;;11.10;5.67;;;27.30;57.40;;;;;;1897724;75;21149;-85
2022/12/25 08:20:11;;;;;;;10.68;5.10;;;27.20;56.00;;;;;;1893547;75;21075;-84
2022/12/25 08:22:48;;;;;;;18.52;5.03;;;27.20;56.60;;;;;;1880499;74;21059;-86
2022/12/25 08:25:22;;;;;;;10.53;5.25;;;27.20;56.50;;;;;;1939307;74;21137;-88
2022/12/25 08:27:53;;;;;;;7.55;5.53;;;27.20;56.70;;;;;;1940546;74;21075;-87
2022/12/25 08:30:24;;;;;;;7.42;5.12;;;27.20;56.20;;;;;;1942971;74;21175;-86
2022/12/25 08:32:58;;;;;;;10.60;5.67;;;27.20;56.40;;;;;;1942489;74;21063;-86
2022/12/25 08:35:28;;;;;;;10.98;5.95;;;27.20;56.40;;;;;;1942211;74;21109;-85
2022/12/25 08:37:59;;;;;;;8.98;5.85;;;27.10;56.20;;;;;;1920346;74;21114;-86
2022/12/25 08:40:38;;;;;;;9.70;4.97;;;27.20;55.90;;;;;;1893280;73;21537;-86
2022/12/25 08:43:10;;;;;;;8.55;4.87;;;27.20;55.70;;;;;;1893388;71;21053;-84
2022/12/25 08:45:42;;;;;;;8.63;5.60;;;27.10;56.20;;;;;;1903594;72;21079;-83
2022/12/25 08:48:15;;;;;;;12.80;5.58;;;27.10;55.50;;;;;;1914981;73;21133;-84
2022/12/25 08:50:54;;;;;;;8.13;5.53;;;27.10;55.80;;;;;;1916059;73;21138;-85
2022/12/25 08:53:29;;;;;;;10.90;5.70;;;27.10;55.70;;;;;;1905837;74;21155;-86
2022/12/25 08:56:09;;;;;;;9.25;5.53;;;27.10;55.90;;;;;;1913738;74;21159;-85
2022/12/25 08:58:36;;;;;;;9.65;5.85;;;27.10;56.00;;;;;;1912486;74;21091;-85
2022/12/25 09:01:08;;;;;;;10.70;6.00;;;27.10;56.10;;;;;;1913336;74;21213;-85
2022/12/25 09:03:42;;;;;;;8.48;6.10;;;27.10;56.10;;;;;;1877518;75;21601;-85
2022/12/25 09:06:16;;;;;;;8.35;6.12;;;27.10;56.10;;;;;;1906435;74;21209;-84
2022/12/25 09:08:51;;;;;;;11.60;5.90;;;27.00;55.80;;;;;;1895850;75;21072;-84
2022/12/25 09:11:29;;;;;;;12.47;6.95;;;27.00;56.10;;;;;;1882237;73;21166;-85
2022/12/25 09:14:05;;;;;;;14.93;6.47;;;27.00;56.00;;;;;;1876637;76;21533;-84
2022/12/25 09:16:42;;;;;;;7.33;5.85;;;27.00;55.90;;;;;;1894699;75;21072;-83
2022/12/25 09:19:15;;;;;;;14.15;6.55;;;27.00;55.70;;;;;;1888845;75;21154;-85
2022/12/25 09:21:56;;;;;;;9.93;6.33;;;26.90;56.20;;;;;;1896823;75;21136;-85
2022/12/25 09:24:33;;;;;;;13.32;6.30;;;26.90;56.30;;;;;;1894385;75;21076;-85
2022/12/25 09:27:15;;;;;;;13.08;6.10;;;26.90;56.30;;;;;;1893436;75;21505;-85
2022/12/25 09:29:46;;;;;;;13.83;6.20;;;26.90;56.50;;;;;;1886741;75;21155;-85
2022/12/25 09:32:33;;;;;;;15.90;7.15;;;26.80;56.40;;;;;;1890329;74;21142;-85
2022/12/25 09:35:04;;;;;;;11.65;6.83;;;26.80;56.90;;;;;;1926702;73;21733;-85
2022/12/25 09:37:41;;;;;;;15.78;7.17;;;26.80;56.80;;;;;;1883721;75;21142;-85
2022/12/25 09:40:20;;;;;;;13.00;7.53;;;26.70;57.00;;;;;;1928882;73;21186;-84
2022/12/25 09:42:57;;;;;;;11.03;6.62;;;26.70;56.70;;;;;;1847104;76;21081;-85
2022/12/25 09:45:33;;;;;;;14.38;7.47;;;26.60;56.80;;;;;;1894819;75;21071;-86
2022/12/25 09:48:06;;;;;;;15.25;7.28;;;26.60;56.90;;;;;;1889304;75;21172;-85
2022/12/25 09:51:05;;;;;;;12.95;6.65;;;26.60;57.30;;;;;;1894065;74;21145;-83
2022/12/25 09:53:41;;;;;;;13.22;7.33;;;26.50;57.40;;;;;;1942008;74;21345;-84
2022/12/25 09:56:15;;;;;;;18.82;9.43;;;26.50;57.60;;;;;;1940785;74;21128;-86
2022/12/25 09:58:49;;;;;;;15.88;8.68;;;26.50;57.70;;;;;;1938927;73;21065;-85
2022/12/25 10:01:38;;;;;;;15.90;9.50;;;26.40;57.40;;;;;;1939032;74;21085;-87
2022/12/25 10:04:30;;;;;;;9.98;6.50;;;26.40;57.60;;;;;;1938349;73;21135;-86
2022/12/25 10:07:07;;;;;;;11.33;6.70;;;26.30;57.90;;;;;;1794798;80;21279;-86
2022/12/25 10:09:57;;;;;;;13.88;7.47;;;26.30;58.00;;;;;;1794626;79;21142;-86
2022/12/25 10:12:55;;;;;;;13.90;7.10;;;26.30;58.20;;;;;;1819850;78;21123;-87
2022/12/25 10:15:37;;;;;;;15.83;8.40;;;26.30;59.10;;;;;;1831306;77;21547;-86
2022/12/25 10:18:12;;;;;;;10.55;7.40;;;26.20;58.60;;;;;;1834264;77;21098;-85
2022/12/25 10:20:58;;;;;;;13.13;7.53;;;26.20;58.60;;;;;;1827935;78;21130;-87
2022/12/25 10:23:35;;;;;;;;;;;26.20;58.50;;;;;;1841658;77;21074;-87
2022/12/25 10:26:18;;;;;;;16.42;8.88;;;26.10;58.80;;;;;;1834691;78;20132;-87
2022/12/25 10:29:14;;;;;;;16.25;9.28;;;26.10;59.20;;;;;;1826677;78;21193;-87
2022/12/25 10:31:50;;;;;;;12.40;8.08;;;26.00;59.10;;;;;;1828522;78;21142;-87
2022/12/25 10:34:21;;;;;;;11.90;8.53;;;26.00;59.30;;;;;;1857616;77;21087;-88
2022/12/25 10:36:55;;;;;;;16.15;8.80;;;25.90;59.50;;;;;;1854986;77;22245;-86
2022/12/25 10:39:27;;;;;;;13.45;8.23;;;25.90;59.50;;;;;;1864766;77;21149;-90
2022/12/25 10:42:23;;;;;;;12.13;7.75;;;25.90;59.70;;;;;;1830031;78;21312;-86
2022/12/25 10:45:02;;;;;;;13.00;7.83;;;25.80;59.90;;;;;;1824744;78;21115;-86
2022/12/25 10:47:36;;;;;;;13.80;8.98;;;25.80;60.10;;;;;;1791558;80;21084;-87
2022/12/25 10:50:20;;;;;;;16.87;9.13;;;25.70;60.30;;;;;;1778784;78;21204;-86
2022/12/25 10:53:08;;;;;;;19.48;9.08;;;25.70;60.40;;;;;;1828435;78;21142;-87
2022/12/25 10:55:38;;;;;;;13.22;8.70;;;25.60;60.60;;;;;;1826373;77;21062;-87
2022/12/25 10:58:10;;;;;;;17.35;9.53;;;25.60;60.70;;;;;;1828176;76;21091;-86
2022/12/25 11:00:41;;;;;;;15.23;9.40;;;25.60;61.00;;;;;;1808389;78;21122;-86
2022/12/25 11:03:23;;;;;;;21.42;13.55;;;25.60;61.20;;;;;;1841279;77;21673;-86
2022/12/25 11:05:56;;;;;;;25.27;15.30;;;25.50;61.20;;;;;;1827195;77;21200;-85
2022/12/25 11:08:30;;;;;;;18.27;11.18;;;25.50;61.20;;;;;;1836649;77;21249;-87
2022/12/25 11:11:08;;;;;;;17.27;10.50;;;25.40;61.20;;;;;;1824951;77;21273;-87
2022/12/25 11:13:38;;;;;;;15.95;9.78;;;25.40;61.30;;;;;;1836001;77;21082;-87
2022/12/25 11:16:14;;;;;;;14.65;10.50;;;25.40;61.20;;;;;;1838302;76;21148;-85
2022/12/25 11:18:49;;;;;;;17.10;10.03;;;25.30;61.30;;;;;;1790708;79;21157;-88
2022/12/25 11:21:29;;;;;;;19.48;10.23;;;25.30;61.30;;;;;;1846491;77;21134;-86
2022/12/25 11:24:05;;;;;;;14.87;9.15;;;25.30;61.80;;;;;;1854369;77;21131;-85
2022/12/25 11:26:54;;;;;;;18.77;9.40;;;25.20;61.20;;;;;;1809831;78;21147;-87
2022/12/25 11:29:44;;;;;;;16.82;10.10;;;25.20;61.60;;;;;;1853567;76;21138;-85
2022/12/25 11:32:26;;;;;;;16.85;10.32;;;25.20;61.60;;;;;;1868947;75;21149;-87
2022/12/25 11:34:59;;;;;;;20.70;11.33;;;25.20;61.60;;;;;;1879416;75;21140;-86
2022/12/25 11:37:35;;;;;;;16.17;10.95;;;25.10;61.70;;;;;;1855161;75;21068;-85
2022/12/25 11:40:09;;;;;;;16.95;11.30;;;25.10;61.90;;;;;;1872787;75;21145;-86
2022/12/25 11:42:43;;;;;;;18.90;11.08;;;25.10;62.00;;;;;;1888160;75;21126;-84
2022/12/25 11:45:22;;;;;;;14.80;10.10;;;25.10;62.10;;;;;;1853419;77;21209;-86
2022/12/25 11:47:58;;;;;;;22.42;12.85;;;25.00;62.20;;;;;;1877210;75;21106;-86
2022/12/25 11:50:38;;;;;;;23.57;14.70;;;25.00;62.40;;;;;;1851516;77;21224;-86
2022/12/25 11:53:28;;;;;;;27.22;16.15;;;25.00;62.30;;;;;;1864279;75;21137;-85
2022/12/25 11:56:01;;;;;;;29.32;16.77;;;24.90;62.20;;;;;;1858688;77;21142;-86
2022/12/25 11:58:41;;;;;;;32.98;21.05;;;24.90;62.30;;;;;;1823139;78;21161;-86
2022/12/25 12:01:26;;;;;;;35.55;22.05;;;24.90;62.40;;;;;;1855026;77;21130;-85
2022/12/25 12:03:59;;;;;;;34.95;25.90;;;24.90;62.40;;;;;;1856661;75;21616;-85
2022/12/25 12:06:42;;;;;;;44.20;26.45;;;24.80;62.50;;;;;;1841326;75;21164;-85
2022/12/25 12:09:21;;;;;;;40.33;28.07;;;24.80;62.60;;;;;;1844451;76;21563;-86
2022/12/25 12:12:09;;;;;;;44.73;28.95;;;24.80;62.70;;;;;;1888067;75;21137;-88
2022/12/25 12:14:58;;;;;;;39.18;25.35;;;24.80;63.00;;;;;;1892788;75;21180;-87
2022/12/25 12:17:29;;;;;;;41.70;27.82;;;24.70;63.30;;;;;;1854479;77;21083;-85
2022/12/25 12:20:01;;;;;;;40.40;28.23;;;24.70;63.40;;;;;;1859811;76;21095;-84
2022/12/25 12:22:33;;;;;;;50.08;32.13;;;24.70;63.50;;;;;;1877155;75;21068;-85
2022/12/25 12:25:06;;;;;;;49.58;30.70;;;24.70;63.60;;;;;;1848240;77;21104;-84
2022/12/25 12:27:41;;;;;;;37.45;25.43;;;24.70;63.70;;;;;;1829739;78;21100;-85
2022/12/25 12:30:28;;;;;;;35.63;23.05;;;24.60;63.80;;;;;;1820230;79;21146;-86
2022/12/25 12:33:07;;;;;;;33.25;18.95;;;24.60;63.90;;;;;;1863547;76;21127;-84
2022/12/25 12:35:39;;;;;;;30.00;17.92;;;24.60;64.20;;;;;;1835444;76;21194;-86
2022/12/25 12:38:15;;;;;;;31.77;16.73;;;24.60;64.50;;;;;;1847223;77;21059;-85
2022/12/25 12:40:58;;;;;;;28.95;16.77;;;24.50;64.80;;;;;;1851375;77;21197;-83
2022/12/25 12:43:43;;;;;;;25.60;16.42;;;24.50;64.70;;;;;;1835565;77;21142;-85
2022/12/25 12:46:28;;;;;;;27.32;16.80;;;24.50;64.80;;;;;;1850737;77;21127;-85
2022/12/25 12:49:25;;;;;;;28.75;17.12;;;24.50;65.20;;;;;;1837474;77;21162;-85
2022/12/25 12:52:26;;;;;;;30.68;17.35;;;24.40;65.10;;;;;;1795443;78;21201;-85
2022/12/25 12:55:11;;;;;;;31.25;16.93;;;24.40;65.30;;;;;;1800120;78;21097;-86
2022/12/25 12:57:41;;;;;;;28.32;17.15;;;24.40;65.30;;;;;;1835761;77;21095;-86
2022/12/25 13:00:20;;;;;;;29.92;17.45;;;24.40;65.40;;;;;;1787829;79;21261;-86
2022/12/25 13:03:25;;;;;;;29.72;18.00;;;24.40;65.40;;;;;;1837248;77;21078;-87
2022/12/25 13:06:02;;;;;;;30.02;18.05;;;24.30;65.50;;;;;;1822826;77;21158;-85
2022/12/25 13:08:41;;;;;;;24.70;16.87;;;24.30;65.60;;;;;;1804864;78;21186;-85
2022/12/25 13:11:23;;;;;;;27.55;17.80;;;24.20;65.90;;;;;;1814307;77;21205;-84
2022/12/25 13:13:56;;;;;;;33.85;17.90;;;24.20;66.10;;;;;;1815109;78;21621;-85
2022/12/25 13:16:39;;;;;;;30.30;17.40;;;24.10;66.40;;;;;;1856363;77;21180;-85
2022/12/25 13:19:12;;;;;;;23.60;16.77;;;24.20;66.90;;;;;;1873122;75;21133;-85
2022/12/25 13:21:52;;;;;;;32.73;18.35;;;24.10;67.10;;;;;;1810490;77;21520;-84
2022/12/25 13:24:26;;;;;;;33.88;18.95;;;24.10;67.10;;;;;;1803935;77;21648;-84
2022/12/25 13:26:57;;;;;;;31.10;18.60;;;24.00;67.40;;;;;;1803359;79;21153;-85
2022/12/25 13:29:33;;;;;;;32.67;20.75;;;24.00;67.40;;;;;;1809283;78;21105;-84
2022/12/25 13:32:07;;;;;;;38.65;22.75;;;23.90;67.70;;;;;;1839374;75;21129;-85
2022/12/25 13:34:40;;;;;;;38.80;22.35;;;23.90;67.70;;;;;;1871110;76;21145;-84
2022/12/25 13:37:19;;;;;;;32.63;21.23;;;23.90;67.70;;;;;;1868528;75;21138;-84
2022/12/25 13:39:52;;;;;;;35.88;22.73;;;23.80;67.70;;;;;;1856880;75;21304;-83
2022/12/25 13:42:29;;;;;;;39.00;22.52;;;23.80;67.90;;;;;;1831973;77;21142;-84
2022/12/25 13:45:04;;;;;;;34.60;22.62;;;23.80;68.40;;;;;;1840810;77;21149;-85
2022/12/25 13:47:39;;;;;;;40.52;23.47;;;23.80;68.50;;;;;;1851566;77;21625;-84
2022/12/25 13:50:14;;;;;;;;;;;23.70;68.50;;;;;;1829885;78;21067;-83
2022/12/25 13:52:48;;;;;;;35.45;22.65;;;23.70;69.50;;;;;;1844581;77;20209;-83
2022/12/25 13:55:30;;;;;;;36.38;22.80;;;23.70;69.20;;;;;;1859020;76;21162;-83
2022/12/25 13:58:04;;;;;;;39.90;22.75;;;23.70;69.60;;;;;;1828672;76;21099;-83
2022/12/25 14:00:52;;;;;;;34.95;22.20;;;23.60;69.50;;;;;;1837147;77;21168;-83
2022/12/25 14:03:26;;;;;;;42.08;23.15;;;23.60;69.50;;;;;;1843799;77;21151;-84
2022/12/25 14:06:07;;;;;;;36.90;22.75;;;23.60;69.70;;;;;;1829626;78;21138;-84
2022/12/25 14:08:39;;;;;;;38.92;23.98;;;23.50;69.70;;;;;;1842821;77;21163;-84
2022/12/25 14:11:10;;;;;;;37.38;22.65;;;23.50;69.60;;;;;;1809315;78;21083;-86
2022/12/25 14:13:52;;;;;;;41.05;21.85;;;23.40;69.70;;;;;;1834392;77;21108;-84
2022/12/25 14:16:20;;;;;;;36.88;22.48;;;23.40;70.20;;;;;;1828715;77;21637;-86
2022/12/25 14:19:02;;;;;;;37.10;21.62;;;23.40;70.00;;;;;;1831845;77;21179;-84
2022/12/25 14:21:39;;;;;;;33.58;22.00;;;23.40;70.20;;;;;;1837282;76;21255;-87
2022/12/25 14:24:18;;;;;;;32.45;20.97;;;23.30;70.70;;;;;;1836398;77;22075;-83
2022/12/25 14:26:52;;;;;;;31.60;20.62;;;23.30;70.70;;;;;;1834080;77;21173;-85
2022/12/25 14:29:23;;;;;;;32.53;20.30;;;23.20;71.90;;;;;;1796251;79;21076;-84
2022/12/25 14:32:08;;;;;;;36.77;19.73;;;23.20;71.50;;;;;;1832994;77;21106;-83
2022/12/25 14:34:42;;;;;;;27.37;17.75;;;23.20;71.80;;;;;;1815204;77;21665;-85
2022/12/25 14:37:18;;;;;;;27.65;18.55;;;23.10;72.00;;;;;;1843210;77;21795;-82
2022/12/25 14:40:21;;;;;;;30.35;17.67;;;23.10;72.30;;;;;;1790646;79;21160;-84
2022/12/25 14:43:06;;;;;;;30.32;17.67;;;23.10;72.60;;;;;;1817273;77;21154;-85
2022/12/25 14:45:39;;;;;;;29.60;17.77;;;23.00;72.70;;;;;;1790096;78;21221;-83
2022/12/25 14:48:20;;;;;;;31.68;16.93;;;23.00;73.20;;;;;;1798956;78;21624;-83
2022/12/25 14:51:00;;;;;;;26.42;17.35;;;23.00;73.40;;;;;;1794244;78;21143;-84
2022/12/25 14:53:40;;;;;;;25.82;15.85;;;22.90;73.40;;;;;;1806567;78;21132;-83
2022/12/25 14:56:13;;;;;;;29.27;15.68;;;22.90;73.60;;;;;;1825905;77;21139;-84
2022/12/25 14:58:46;;;;;;;26.68;16.62;;;22.80;74.20;;;;;;1834688;77;21060;-84
2022/12/25 15:01:22;;;;;;;26.07;16.50;;;22.80;74.00;;;;;;1831913;78;21634;-84
2022/12/25 15:04:11;;;;;;;24.95;15.90;;;22.80;74.20;;;;;;1801779;78;21244;-84